Grafton, ND

8:59 PM CDT on April 26, 2017 (GMT -0500)
Grafton Municipal

Weather History for KGAF - November, 2012

Change the Weather History Date:

Friday, November 30, 2012

  Actual Average Record
Temperature  
Mean Temperature 24 °F -  
Max Temperature 32 °F 26 °F 49 °F (1968)
Min Temperature 17 °F 11 °F -31 °F (1985)
Degree Days  
Heating Degree Days 40    
Moisture  
Dew Point 22 °F    
Average Humidity 92    
Maximum Humidity 100    
Minimum Humidity 73    
Precipitation  
Precipitation 0.00 in - - ()
Sea Level Pressure  
Sea Level Pressure 30.05 in    
Wind  
Wind Speed 12 mph (SE)    
Max Wind Speed 21 mph    
Max Gust Speed 26 mph    
Visibility 6 miles    
Events      
Averages and records for this station are not official NWS values.
T = Trace of Precipitation, MM = Missing Value Source: NWS Daily Summary

Daily Weather History Graph

Daily Weather History Graph

Search for Another Location

Airport or City:

Trip Planner

Search our weather history database for the weather conditions in past years. The results will help you decide how hot, cold, wet, or windy it might be!

Date:

Astronomy

Nov. 30, 2012 Rise Set
Actual Time 7:59 AM CST 4:37 PM CST
Civil Twilight 7:23 AM CST 5:13 PM CST
Nautical Twilight 6:44 AM CST 5:52 PM CST
Astronomical Twilight 6:06 AM CST 6:30 PM CST
Moon 6:34 PM CST (11/30) 9:31 AM CST (11/30)
Length of Visible Light 9h 49m
Length of Day
8h 38m
Waning Gibbous, 96% of the Moon is Illuminated
Nov 30
Waning Gibbous
Dec 6
Last Quarter
Dec 13
New
Dec 19
First Quarter
Dec 28
Full

Hourly Weather History & Observations

Time (CST) Temp. Windchill Dew Point Humidity Pressure Visibility Wind Dir Wind Speed Gust Speed Precip Events Conditions
12:15 AM 17.6 °F 4.3 °F 10.4 °F 73% 30.20 in 10.0 mi ESE 12.7 mph - N/A   Overcast
12:35 AM 17.6 °F 5.0 °F 10.4 °F 73% 30.20 in 10.0 mi East 11.5 mph - N/A   Overcast
12:55 AM 17.6 °F 5.7 °F 10.4 °F 73% 30.21 in 10.0 mi East 10.4 mph - N/A   Overcast
1:15 AM 17.6 °F 6.4 °F 12.2 °F 79% 30.20 in 10.0 mi East 9.2 mph - N/A   Overcast
1:35 AM 17.6 °F 6.4 °F 12.2 °F 79% 30.21 in 10.0 mi East 9.2 mph - N/A   Overcast
1:55 AM 17.6 °F 5.7 °F 12.2 °F 79% 30.19 in 10.0 mi East 10.4 mph - N/A   Overcast
2:15 AM 17.6 °F 6.4 °F 12.2 °F 79% 30.20 in 10.0 mi East 9.2 mph - N/A   Overcast
2:35 AM 17.6 °F 6.4 °F 14.0 °F 86% 30.19 in 10.0 mi East 9.2 mph - N/A   Overcast
2:55 AM 17.6 °F 6.4 °F 14.0 °F 86% 30.20 in 10.0 mi East 9.2 mph - N/A   Overcast
3:15 AM 17.6 °F 8.2 °F 14.0 °F 86% 30.20 in 10.0 mi East 6.9 mph - N/A   Overcast
3:35 AM 17.6 °F 9.3 °F 14.0 °F 86% 30.19 in 10.0 mi East 5.8 mph - N/A   Overcast
3:55 AM 17.6 °F 9.3 °F 14.0 °F 86% 30.19 in 10.0 mi East 5.8 mph - N/A   Overcast
4:15 AM 17.6 °F 9.3 °F 14.0 °F 86% 30.18 in 10.0 mi East 5.8 mph - N/A   Overcast
4:35 AM 17.6 °F 8.2 °F 14.0 °F 86% 30.18 in 10.0 mi ESE 6.9 mph - N/A   Overcast
4:55 AM 17.6 °F 9.3 °F 15.8 °F 93% 30.17 in 10.0 mi ESE 5.8 mph - N/A   Overcast
5:15 AM 17.6 °F 6.4 °F 15.8 °F 93% 30.15 in 10.0 mi ESE 9.2 mph - N/A   Overcast
5:35 AM 19.4 °F 7.9 °F 15.8 °F 86% 30.15 in 10.0 mi SE 10.4 mph - N/A   Overcast
5:55 AM 19.4 °F 7.9 °F 17.6 °F 93% 30.14 in 10.0 mi SE 10.4 mph - N/A   Overcast
6:15 AM 19.4 °F 7.9 °F 17.6 °F 93% 30.14 in 9.0 mi SE 10.4 mph - N/A   Overcast
6:35 AM 19.4 °F 8.6 °F 17.6 °F 93% 30.14 in 8.0 mi SE 9.2 mph - N/A   Overcast
6:55 AM 19.4 °F 8.6 °F 17.6 °F 93% 30.14 in 8.0 mi SE 9.2 mph - N/A   Overcast
7:15 AM 19.4 °F 7.9 °F 17.6 °F 93% 30.14 in 7.0 mi SE 10.4 mph - N/A   Overcast
7:35 AM 19.4 °F 7.2 °F 19.4 °F 100% 30.13 in 7.0 mi SSE 11.5 mph - N/A   Overcast
7:55 AM 19.4 °F 9.5 °F 19.4 °F 100% 30.14 in 7.0 mi SSE 8.1 mph - N/A   Overcast
8:15 AM 21.2 °F 10.9 °F 19.4 °F 93% 30.14 in 6.0 mi SSE 9.2 mph - N/A   Overcast
8:35 AM 21.2 °F 10.9 °F 19.4 °F 93% 30.14 in 6.0 mi SSE 9.2 mph - N/A   Overcast
8:55 AM 21.2 °F 10.9 °F 19.4 °F 93% 30.13 in 5.0 mi SE 9.2 mph - N/A   Overcast
9:15 AM 21.2 °F 11.7 °F 21.2 °F 100% 30.14 in 4.0 mi SSE 8.1 mph - N/A   Overcast
9:35 AM 23.0 °F 13.9 °F 21.2 °F 93% 30.12 in 4.0 mi SE 8.1 mph - N/A   Overcast
9:55 AM 23.0 °F 13.1 °F 23.0 °F 100% 30.13 in 5.0 mi SSE 9.2 mph - N/A   Overcast
10:15 AM 23.0 °F 12.4 °F 23.0 °F 100% 30.13 in 4.0 mi SSE 10.4 mph - N/A   Overcast
10:35 AM 23.0 °F 10.6 °F 23.0 °F 100% 30.11 in 3.0 mi SSE 13.8 mph - N/A   Overcast
10:55 AM 24.8 °F 12.9 °F 23.0 °F 93% 30.10 in 4.0 mi SSE 13.8 mph - N/A   Overcast
11:15 AM 24.8 °F 12.9 °F 23.0 °F 93% 30.08 in 5.0 mi SSE 13.8 mph - N/A   Overcast
11:35 AM 24.8 °F 14.0 °F 23.0 °F 93% 30.09 in 6.0 mi SSE 11.5 mph - N/A   Overcast
11:55 AM 24.8 °F 14.0 °F 23.0 °F 93% 30.09 in 7.0 mi SSE 11.5 mph - N/A   Overcast
12:15 PM 26.6 °F 16.8 °F 24.8 °F 93% 30.08 in 7.0 mi SSE 10.4 mph - N/A   Overcast
12:35 PM 26.6 °F 16.8 °F 24.8 °F 93% 30.08 in 7.0 mi SSE 10.4 mph - N/A   Overcast
12:55 PM 26.6 °F 15.7 °F 24.8 °F 93% 30.06 in 5.0 mi SSE 12.7 mph 17.3 mph N/A   Overcast
1:15 PM 26.6 °F 13.4 °F 24.8 °F 93% 30.05 in 5.0 mi SSE 18.4 mph - N/A   Overcast
1:35 PM 26.6 °F 13.8 °F 24.8 °F 93% 30.05 in 5.0 mi South 17.3 mph 21.9 mph N/A   Overcast
1:55 PM 26.6 °F 14.7 °F 24.8 °F 93% 30.03 in 4.0 mi South 15.0 mph - N/A   Overcast
2:15 PM 26.6 °F 13.8 °F 24.8 °F 93% 30.01 in 4.0 mi SSE 17.3 mph 24.2 mph N/A   Overcast
2:35 PM 26.6 °F 14.3 °F 24.8 °F 93% 29.99 in 4.0 mi South 16.1 mph 23.0 mph N/A   Overcast
2:55 PM 26.6 °F 14.3 °F 24.8 °F 93% 29.99 in 4.0 mi SSE 16.1 mph 23.0 mph N/A   Overcast
3:15 PM 26.6 °F 15.7 °F 24.8 °F 93% 29.98 in 4.0 mi South 12.7 mph 25.3 mph N/A   Overcast
3:35 PM 26.6 °F 14.3 °F 24.8 °F 93% 29.98 in 4.0 mi South 16.1 mph - N/A   Overcast
3:55 PM 26.6 °F 14.7 °F 26.6 °F 100% 29.97 in 4.0 mi South 15.0 mph - N/A   Overcast
4:15 PM 28.4 °F 17.0 °F 26.6 °F 93% 29.96 in 3.0 mi SSE 15.0 mph - N/A   Overcast
4:35 PM 28.4 °F 17.5 °F 26.6 °F 93% 29.96 in 3.0 mi SSE 13.8 mph 20.7 mph N/A   Overcast
4:55 PM 28.4 °F 17.0 °F 26.6 °F 93% 29.95 in 4.0 mi South 15.0 mph - N/A   Overcast
5:15 PM 28.4 °F 16.6 °F 26.6 °F 93% 29.94 in 4.0 mi SSE 16.1 mph 20.7 mph N/A   Overcast
5:35 PM 28.4 °F 17.0 °F 26.6 °F 93% 29.94 in 4.0 mi SSE 15.0 mph 21.9 mph N/A   Overcast
5:55 PM 28.4 °F 17.0 °F 28.4 °F 100% 29.92 in 3.0 mi SSE 15.0 mph 21.9 mph N/A   Overcast
6:15 PM 28.4 °F 16.6 °F 28.4 °F 100% 29.92 in 3.0 mi SSE 16.1 mph 23.0 mph N/A   Overcast
6:35 PM 28.4 °F 16.2 °F 28.4 °F 100% 29.91 in 3.0 mi SSE 17.3 mph 23.0 mph N/A   Mostly Cloudy
6:55 PM 30.2 °F 17.4 °F 28.4 °F 93% 29.89 in 3.0 mi SSE 20.7 mph 26.5 mph N/A   Overcast
7:15 PM 30.2 °F 18.9 °F 28.4 °F 93% 29.89 in 3.0 mi SSE 16.1 mph - N/A   Overcast
7:35 PM 30.2 °F 18.9 °F 28.4 °F 93% 29.89 in 3.0 mi SSE 16.1 mph 21.9 mph N/A   Overcast
7:55 PM 30.2 °F 18.9 °F 28.4 °F 93% 29.88 in 3.0 mi SSE 16.1 mph 24.2 mph N/A   Overcast
8:15 PM 30.2 °F 18.9 °F 30.2 °F 100% 29.87 in 3.0 mi SSE 16.1 mph 23.0 mph N/A   Overcast
8:35 PM 30.2 °F 18.9 °F 30.2 °F 100% 29.86 in 2.5 mi SSE 16.1 mph 25.3 mph N/A   Overcast
9:15 PM 32.0 °F 21.2 °F 30.2 °F 93% 29.86 in 3.0 mi South 16.1 mph 24.2 mph N/A   Overcast
9:35 PM 32.0 °F 20.5 °F 30.2 °F 93% 29.86 in 3.0 mi South 18.4 mph 23.0 mph N/A   Overcast
9:55 PM 32.0 °F 21.2 °F 30.2 °F 93% 29.86 in 3.0 mi South 16.1 mph 21.9 mph N/A   Overcast
10:15 PM 32.0 °F 20.8 °F 32.0 °F 100% 29.85 in 3.0 mi South 17.3 mph 24.2 mph N/A   Overcast
10:35 PM 32.0 °F 20.8 °F 32.0 °F 100% 29.83 in 3.0 mi South 17.3 mph 25.3 mph N/A   Mostly Cloudy
11:15 PM 32.0 °F 20.8 °F 32.0 °F 100% 29.81 in 3.0 mi SSE 17.3 mph 25.3 mph N/A   Overcast
11:35 PM 32.0 °F 21.6 °F 32.0 °F 100% 29.81 in 3.0 mi SSE 15.0 mph 20.7 mph N/A   Overcast